METAR / TAF

Buochs LSZC 262250Z AUTO 22004KT 190V300 9999 BKN140 04/02 Q1004

TAF LSZC 262005Z 2620/2624 CNL


Alpnach AFB Fetching URL failed: cURL error 28: Resolving timed out after 5000 milliseconds
TAF LSMA 261625Z 2617/2723 VRB02KT 9999 BKN090 PROB30 TEMPO 2706/2712 RA PROB30 TEMPO 2711/2716 04010KT


Emmen AFB LSME 262320Z AUTO 00000KT 9999NDV SCT140 03/02 Q1004

TAF LSME 261625Z 2617/2723 VRB02KT 9999 BKN100 PROB30 TEMPO 2706/2710 RA


Bern LSZB 262320Z AUTO VRB01KT CAVOK 02/01 Q1004

TAF LSZB 262205Z 2622/2624 CNL


Grenchen LSZG 262320Z AUTO 00000KT CAVOK 03/03 Q1004

TAF LSZG 262005Z 2620/2624 CNL


Zurich LSZH 262320Z AUTO 31004KT CAVOK 06/03 Q1005 NOSIG

TAF LSZH 262025Z 2621/2803 VRB02KT CAVOK TX08/2714Z TN03/2706Z BECMG 2702/2705 9999 BKN050 PROB30 TEMPO 2706/2710 RA BECMG 2708/2711 05010KT BECMG 2717/2720 05005KT


Bale LFSB 262330Z AUTO 26002KT 7000 FEW013 OVC230 04/03 Q1005 TEMPO 0500

TAF LFSB 261700Z 2618/2718 34005KT 9999 FEW025 BKN100 BECMG 2620/2623 BKN008 TEMPO 2621/2708 1200 BR OVC002 PROB30 TEMPO 2621/2706 0500 FG VV/// PROB30 TEMPO 2706/2712 -RADZ BECMG 2708/2711 BKN012 TEMPO 2712/2718 35012G22KT BKN015


Les Eplatures LSGC 262320Z AUTO VRB01KT CAVOK 00/M00 Q1004

TAF LSGC 262005Z 2620/2624 CNL


Geneva LSGG 262320Z AUTO VRB01KT 8000 NCD 04/03 Q1004 NOSIG

TAF LSGG 262025Z 2621/2803 VRB02KT 9999 FEW040 BKN090 TX10/2715Z TN04/2705Z BECMG 2706/2708 05012KT


Sion LSGS 262320Z AUTO 03004KT CAVOK 05/01 Q1005

TAF LSGS 262005Z 2620/2624 CNL


Payerne AFB LSMP 262320Z AUTO 00000KT 9999NDV NCD 03/02 Q1004

TAF LSMP 261625Z 2617/2723 VRB02KT 9999 SCT040 BECMG 2705/2707 05010KT


Lugano LSZA 262320Z AUTO VRB01KT 3500 -RA BKN/// 03/03 Q1008

TAF LSZA 262005Z 2620/2624 CNL


Locarno LSZL 262320Z AUTO 07004KT 8000NDV -RA OVC038 03/02 Q1009

TAF LSZL 261725Z 2618/2703 VRB02KT 8000 -RA FEW008 SCT010 OVC100 TEMPO 2618/2703 4000 RA BKN010 PROB40 TEMPO 2618/2703 RASN


St. Gallen LSZR 262320Z AUTO VRB01KT CAVOK 04/04 Q1005

TAF LSZR 262005Z 2620/2624 CNL


Samedan LSZS 262320Z AUTO VRB01KT 4700 -SN BKN/// M02/M03 Q1004

TAF LSZS 262005Z 2620/2624 CNL

Radar

Föhn diagram

From an air pressure difference of approx. 4 hPa (dashed line) between the northern and southern Alps, Föhn can occur. The higher the pressure difference, the more violent the Föhn!

Forecast

Privacy Settings
We use cookies to enhance your experience while using our website. If you are using our Services via a browser you can restrict, block or remove cookies through your web browser settings. We also use content and scripts from third parties that may use tracking technologies. You can selectively provide your consent below to allow such third party embeds. For complete information about the cookies we use, data we collect and how we process them, please check our Privacy Policy
Youtube
Consent to display content from - Youtube
Vimeo
Consent to display content from - Vimeo
Google Maps
Consent to display content from - Google